Time;durP1;ratioP1;P1;durP2;ratioP2;P2;SDS_P1;SDS_P2;PMS_P1;PMS_P2;Temp;Humidity;BMP_temperature;BMP_pressure;BME280_temperature;BME280_humidity;BME280_pressure;Samples;Min_cycle;Max_cycle;Signal;HPM_P1;HPM_P2
2023/07/28 00:02:16;;;;;;;6.70;5.85;;;410.20;2355.20;;;;;;5048542;28;20033;-61
2023/07/28 00:04:42;;;;;;;10.23;5.55;;;410.20;2355.20;;;;;;5048397;28;20017;-60
2023/07/28 00:07:07;;;;;;;8.43;5.80;;;410.20;2355.20;;;;;;5048788;28;20029;-66
2023/07/28 00:09:33;;;;;;;8.63;5.78;;;410.20;2355.20;;;;;;5048595;28;20383;-60
2023/07/28 00:12:00;;;;;;;7.65;5.53;;;410.20;2355.20;;;;;;5048786;28;20538;-59
2023/07/28 00:14:27;;;;;;;7.43;5.70;;;410.10;2355.20;;;;;;5048715;28;20440;-68
2023/07/28 00:16:53;;;;;;;6.80;5.75;;;410.10;2355.20;;;;;;5048469;28;20103;-60
2023/07/28 00:19:20;;;;;;;8.77;6.10;;;410.10;2355.20;;;;;;5048324;28;20052;-61
2023/07/28 00:21:48;;;;;;;6.40;5.68;;;410.10;2355.20;;;;;;5051577;28;20572;-68
2023/07/28 00:24:13;;;;;;;8.00;5.93;;;410.20;2355.20;;;;;;5052139;28;20033;-65
2023/07/28 00:26:39;;;;;;;5.90;5.28;;;409.90;2355.20;;;;;;5052617;28;20087;-68
2023/07/28 00:29:06;;;;;;;7.82;6.10;;;409.90;2355.20;;;;;;5052339;28;20133;-69
2023/07/28 00:31:32;;;;;;;8.07;5.95;;;409.90;2355.20;;;;;;5052612;28;20021;-61
2023/07/28 00:33:58;;;;;;;8.00;6.13;;;409.90;2355.20;;;;;;5052529;28;20033;-68
2023/07/28 00:36:24;;;;;;;8.23;5.72;;;409.90;2355.20;;;;;;5052079;28;20025;-61
2023/07/28 00:38:49;;;;;;;6.60;5.97;;;409.80;2355.20;;;;;;5052444;28;20029;-60
2023/07/28 00:41:15;;;;;;;11.38;6.35;;;409.80;2355.20;;;;;;5039097;28;20425;-69
2023/07/28 00:43:41;;;;;;;8.00;7.00;;;409.70;2355.20;;;;;;5052199;28;20349;-61
2023/07/28 00:46:07;;;;;;;8.80;6.70;;;409.70;2355.20;;;;;;5052230;28;20366;-61
2023/07/28 00:48:32;;;;;;;8.40;6.57;;;409.70;2355.20;;;;;;5052020;28;20074;-60
2023/07/28 00:50:58;;;;;;;9.57;6.53;;;409.60;2355.20;;;;;;5052335;28;20025;-61
2023/07/28 00:53:24;;;;;;;11.95;6.47;;;384.90;2329.60;;;;;;5051326;28;20056;-60
2023/07/28 00:55:51;;;;;;;7.60;6.70;;;384.90;2329.60;;;;;;5052049;28;20025;-60
2023/07/28 00:58:17;;;;;;;8.13;7.07;;;384.80;2329.60;;;;;;5052089;28;20024;-61
2023/07/28 01:00:43;;;;;;;8.82;6.75;;;384.80;2329.60;;;;;;5051763;28;20093;-60
2023/07/28 01:03:08;;;;;;;10.15;6.68;;;384.70;2329.60;;;;;;5051865;28;20434;-67
2023/07/28 01:05:48;;;;;;;8.38;6.13;;;384.60;2329.60;;;;;;5051707;28;20036;-67
2023/07/28 01:08:23;;;;;;;7.50;6.72;;;384.60;2329.60;;;;;;5051584;28;20543;-66
2023/07/28 01:10:49;;;;;;;10.05;7.28;;;384.60;2329.60;;;;;;5052075;28;20078;-60
2023/07/28 01:13:14;;;;;;;7.55;6.05;;;384.60;2329.60;;;;;;5052060;28;20025;-67
2023/07/28 01:15:40;;;;;;;7.30;6.60;;;384.50;2329.60;;;;;;5051782;28;20516;-61
2023/07/28 01:18:06;;;;;;;8.15;7.35;;;384.70;2329.60;;;;;;5051751;28;20021;-62
2023/07/28 01:20:35;;;;;;;7.82;6.43;;;384.40;2329.60;;;;;;5051495;28;20028;-60
2023/07/28 01:23:20;;;;;;;9.38;7.18;;;384.40;2329.60;;;;;;5051077;28;20037;-65
2023/07/28 01:26:09;;;;;;;8.30;7.28;;;384.30;2329.60;;;;;;5051297;28;20021;-60
2023/07/28 01:28:35;;;;;;;7.30;6.60;;;384.30;2329.60;;;;;;5039697;28;20041;-60
2023/07/28 01:31:05;;;;;;;7.82;6.25;;;384.30;2329.60;;;;;;5051030;28;20021;-68
2023/07/28 01:33:31;;;;;;;7.75;6.55;;;384.30;2329.60;;;;;;5050164;28;20449;-64
2023/07/28 01:35:59;;;;;;;8.73;6.35;;;384.30;2329.60;;;;;;5051273;28;20100;-61
2023/07/28 01:38:25;;;;;;;9.90;7.93;;;384.20;2329.60;;;;;;5050951;28;20106;-64
2023/07/28 01:40:51;;;;;;;6.72;5.93;;;384.10;2329.60;;;;;;5050723;28;20479;-61
2023/07/28 01:43:17;;;;;;;7.45;6.75;;;384.10;2329.60;;;;;;5050950;28;20459;-62
2023/07/28 01:45:42;;;;;;;9.10;6.80;;;384.10;2329.60;;;;;;5050922;28;20100;-60
2023/07/28 01:48:09;;;;;;;7.38;6.10;;;384.10;2329.60;;;;;;5051289;28;20033;-68
2023/07/28 01:50:35;;;;;;;7.28;6.40;;;384.10;2329.60;;;;;;5050565;28;20023;-66
2023/07/28 01:53:01;;;;;;;10.25;6.88;;;384.10;2329.60;;;;;;5050774;28;20052;-63
2023/07/28 01:55:27;;;;;;;7.60;6.35;;;384.10;2329.60;;;;;;5050423;28;20063;-66
2023/07/28 01:57:58;;;;;;;8.90;6.53;;;384.10;2329.60;;;;;;5050877;28;20028;-69
2023/07/28 02:00:25;;;;;;;8.25;6.57;;;384.10;2329.60;;;;;;5050356;28;20021;-66
2023/07/28 02:02:51;;;;;;;8.98;6.32;;;384.10;2329.60;;;;;;5050485;28;20098;-60
2023/07/28 02:05:17;;;;;;;7.97;6.60;;;384.10;2329.60;;;;;;5050711;28;20096;-62
2023/07/28 02:07:43;;;;;;;7.82;6.50;;;384.10;2329.60;;;;;;5050546;28;20184;-61
2023/07/28 02:10:10;;;;;;;7.45;6.15;;;384.20;2329.60;;;;;;5050587;28;20028;-64
2023/07/28 02:12:36;;;;;;;7.40;6.63;;;384.20;2329.60;;;;;;5050592;28;20033;-70
2023/07/28 02:15:02;;;;;;;7.40;6.60;;;384.10;2329.60;;;;;;5050210;28;20017;-67
2023/07/28 02:17:28;;;;;;;8.02;6.28;;;384.00;2329.60;;;;;;5050650;28;20025;-64
2023/07/28 02:19:54;;;;;;;7.65;6.85;;;359.30;2329.60;;;;;;5050367;28;20036;-65
2023/07/28 02:22:19;;;;;;;8.90;6.63;;;359.20;2329.60;;;;;;5050246;28;20428;-61
2023/07/28 02:24:45;;;;;;;7.50;6.68;;;359.20;2329.60;;;;;;5050015;28;20115;-64
2023/07/28 02:27:11;;;;;;;7.00;6.30;;;359.20;2329.60;;;;;;5050461;28;20029;-62
2023/07/28 02:29:36;;;;;;;7.70;6.65;;;359.20;2329.60;;;;;;5049606;28;20044;-61
2023/07/28 02:32:02;;;;;;;7.28;6.57;;;359.20;2329.60;;;;;;5050250;28;20478;-60
2023/07/28 02:34:28;;;;;;;7.60;6.85;;;359.20;2329.60;;;;;;5050046;28;20040;-60
2023/07/28 02:36:53;;;;;;;7.47;6.22;;;359.20;2329.60;;;;;;5050254;28;20087;-66
2023/07/28 02:39:20;;;;;;;9.05;6.63;;;359.30;2329.60;;;;;;5049616;28;20036;-60
2023/07/28 02:41:46;;;;;;;7.60;6.82;;;359.20;2329.60;;;;;;5049851;28;20048;-66
2023/07/28 02:44:11;;;;;;;8.80;6.88;;;359.10;2329.60;;;;;;5049122;28;20021;-60
2023/07/28 02:46:37;;;;;;;8.07;5.95;;;359.10;2329.60;;;;;;5049882;28;20017;-66
2023/07/28 02:49:03;;;;;;;8.00;6.68;;;359.10;2329.60;;;;;;5049895;28;20027;-60
2023/07/28 02:51:30;;;;;;;7.65;6.28;;;359.10;2329.60;;;;;;5049906;28;20168;-61
2023/07/28 02:53:57;;;;;;;7.53;6.20;;;359.10;2329.60;;;;;;5048969;28;20454;-60
2023/07/28 02:56:22;;;;;;;7.20;6.50;;;359.10;2329.60;;;;;;5049535;28;20029;-66
2023/07/28 02:58:48;;;;;;;7.93;7.13;;;359.10;2329.60;;;;;;5049800;28;20025;-63
2023/07/28 03:01:14;;;;;;;7.20;6.47;;;359.00;2329.60;;;;;;5049291;28;20017;-60
2023/07/28 03:03:40;;;;;;;7.70;6.90;;;359.00;2329.60;;;;;;5049817;28;21572;-60
2023/07/28 03:06:06;;;;;;;7.20;5.95;;;359.00;2329.60;;;;;;5049631;28;20079;-63
2023/07/28 03:08:31;;;;;;;7.10;6.40;;;358.90;2329.60;;;;;;5049107;28;20052;-61
2023/07/28 03:10:58;;;;;;;8.20;6.63;;;359.00;2329.60;;;;;;5049551;28;20082;-60
2023/07/28 03:13:24;;;;;;;9.13;6.95;;;359.00;2329.60;;;;;;5049291;28;20536;-60
2023/07/28 03:15:49;;;;;;;8.82;7.13;;;359.00;2329.60;;;;;;5049605;28;20116;-60
2023/07/28 03:18:15;;;;;;;9.55;6.82;;;359.00;2329.60;;;;;;5049206;28;20036;-59
2023/07/28 03:20:41;;;;;;;10.32;6.90;;;359.00;2329.60;;;;;;5049267;28;20388;-60
2023/07/28 03:23:07;;;;;;;7.30;6.60;;;358.90;2329.60;;;;;;5049015;28;20045;-60
2023/07/28 03:25:32;;;;;;;7.55;6.30;;;359.00;2329.60;;;;;;5048818;28;20052;-60
2023/07/28 03:27:58;;;;;;;9.38;6.90;;;358.90;2329.60;;;;;;5049196;28;20059;-60
2023/07/28 03:30:24;;;;;;;6.95;6.03;;;358.90;2329.60;;;;;;5048879;28;20033;-61
2023/07/28 03:32:49;;;;;;;6.88;6.18;;;358.90;2329.60;;;;;;5048949;28;20025;-60
2023/07/28 03:35:15;;;;;;;8.05;6.40;;;359.00;2329.60;;;;;;5049003;28;20025;-60
2023/07/28 03:37:41;;;;;;;6.00;5.13;;;359.00;2329.60;;;;;;5048846;28;20021;-61
2023/07/28 03:40:07;;;;;;;7.63;6.82;;;358.90;2329.60;;;;;;5049040;28;20025;-61
2023/07/28 03:42:33;;;;;;;7.20;5.80;;;359.00;2329.60;;;;;;5048611;28;20025;-60
2023/07/28 03:44:59;;;;;;;10.18;5.93;;;359.10;2329.60;;;;;;5049163;28;20037;-62
2023/07/28 03:47:25;;;;;;;6.85;6.15;;;359.10;2329.60;;;;;;5048478;28;20548;-61
2023/07/28 03:49:51;;;;;;;8.40;6.35;;;359.20;2329.60;;;;;;5048922;28;20039;-61
2023/07/28 03:52:17;;;;;;;9.20;5.45;;;384.60;2329.60;;;;;;5048780;28;20060;-61
2023/07/28 03:54:42;;;;;;;6.60;6.00;;;359.30;2329.60;;;;;;5048004;28;20029;-61
2023/07/28 03:57:09;;;;;;;7.60;6.38;;;359.30;2329.60;;;;;;5048658;28;20035;-61
2023/07/28 03:59:35;;;;;;;8.02;5.78;;;359.30;2329.60;;;;;;5048783;28;20024;-60
2023/07/28 04:02:01;;;;;;;5.78;5.18;;;384.00;2329.60;;;;;;5048491;28;20029;-59
2023/07/28 04:04:27;;;;;;;7.50;6.10;;;384.10;2329.60;;;;;;5048642;28;20028;-61
2023/07/28 04:06:53;;;;;;;6.95;5.63;;;384.10;2329.60;;;;;;5048610;28;20032;-60
2023/07/28 04:09:19;;;;;;;9.23;5.55;;;384.10;2329.60;;;;;;5048832;28;20040;-61
2023/07/28 04:11:45;;;;;;;5.50;4.80;;;384.20;2329.60;;;;;;5048617;28;20107;-69
2023/07/28 04:14:12;;;;;;;8.00;5.90;;;384.30;2329.60;;;;;;5048330;28;20021;-62
2023/07/28 04:16:37;;;;;;;6.85;5.68;;;384.40;2329.60;;;;;;5048102;28;20263;-60
2023/07/28 04:19:03;;;;;;;7.07;5.75;;;384.60;2329.60;;;;;;5048410;28;20502;-61
2023/07/28 04:21:29;;;;;;;6.35;5.40;;;384.60;2329.60;;;;;;5048845;28;20055;-60
2023/07/28 04:23:55;;;;;;;5.97;5.30;;;384.60;2329.60;;;;;;5048026;28;20499;-61
2023/07/28 04:26:22;;;;;;;6.80;5.40;;;384.70;2329.60;;;;;;5035464;28;20423;-65
2023/07/28 04:28:47;;;;;;;6.32;5.70;;;384.70;2329.60;;;;;;5048710;28;20045;-67
2023/07/28 04:31:13;;;;;;;6.43;5.60;;;384.90;2329.60;;;;;;5048436;28;20043;-60
2023/07/28 04:33:41;;;;;;;8.45;5.65;;;384.90;2329.60;;;;;;5047848;28;20981;-61
2023/07/28 04:36:07;;;;;;;6.80;5.68;;;384.90;2329.60;;;;;;5048532;28;20041;-65
2023/07/28 04:38:33;;;;;;;12.25;5.80;;;409.60;2355.20;;;;;;5048083;28;20036;-60
2023/07/28 04:40:59;;;;;;;10.35;5.07;;;409.70;2355.20;;;;;;5048325;28;20512;-64
2023/07/28 04:43:25;;;;;;;7.55;5.68;;;409.80;2355.20;;;;;;5048157;28;20044;-60
2023/07/28 04:45:50;;;;;;;8.07;5.57;;;410.00;2355.20;;;;;;5048747;28;20116;-60
2023/07/28 04:48:16;;;;;;;6.10;5.50;;;410.10;2355.20;;;;;;5047900;28;20029;-65
2023/07/28 04:50:42;;;;;;;8.52;4.68;;;410.40;2355.20;;;;;;5048648;28;20399;-69
2023/07/28 04:53:07;;;;;;;7.38;5.35;;;410.30;2355.20;;;;;;5048226;28;20116;-67
2023/07/28 04:55:33;;;;;;;7.35;4.60;;;435.60;2355.20;;;;;;5048244;28;20029;-61
2023/07/28 04:57:59;;;;;;;5.22;4.70;;;564.00;2432.00;;;;;;5048437;28;20013;-61
2023/07/28 05:00:25;;;;;;;4.90;4.40;;;691.60;1971.20;;;;;;5048343;28;20096;-61
2023/07/28 05:02:50;;;;;;;5.15;4.45;;;768.10;1715.20;;;;;;5047889;28;20414;-61
2023/07/28 05:05:16;;;;;;;8.10;5.35;;;819.20;1561.60;;;;;;5047873;28;20487;-62
2023/07/28 05:07:42;;;;;;;5.00;4.45;;;845.30;1484.80;;;;;;5050649;28;20052;-67
2023/07/28 05:10:08;;;;;;;6.13;4.60;;;871.30;1382.40;;;;;;5052040;28;20025;-73
2023/07/28 05:12:34;;;;;;;7.10;4.90;;;921.80;1356.80;;;;;;5051100;28;20025;-62
2023/07/28 05:14:59;;;;;;;7.93;4.40;;;922.40;1280.00;;;;;;5050819;28;20112;-67
2023/07/28 05:17:25;;;;;;;6.20;5.10;;;947.60;1254.40;;;;;;5050710;28;20114;-63
2023/07/28 05:19:51;;;;;;;5.30;4.80;;;973.20;1203.20;;;;;;5049624;28;20112;-66
2023/07/28 05:22:17;;;;;;;7.22;4.30;;;973.70;1177.60;;;;;;5048661;28;20036;-60
2023/07/28 05:24:44;;;;;;;5.25;4.65;;;973.70;1177.60;;;;;;5048198;28;20067;-67
2023/07/28 05:27:10;;;;;;;5.53;4.40;;;998.70;1177.60;;;;;;5049971;28;20041;-60
2023/07/28 05:29:36;;;;;;;6.25;4.50;;;998.90;1152.00;;;;;;5050767;28;20032;-63
2023/07/28 05:32:02;;;;;;;5.13;4.63;;;1024.10;1126.40;;;;;;5051570;28;20029;-63
2023/07/28 05:34:28;;;;;;;5.78;5.18;;;999.30;1152.00;;;;;;5048561;28;20029;-63
2023/07/28 05:36:54;;;;;;;5.45;4.95;;;;;;;;;;5048181;28;20119;-63
2023/07/28 05:39:19;;;;;;;5.68;5.18;;;1024.60;1126.40;;;;;;5049228;28;20112;-63
2023/07/28 05:41:45;;;;;;;5.32;4.82;;;1075.70;1075.20;;;;;;5051404;28;20547;-63
2023/07/28 05:44:11;;;;;;;5.90;5.30;;;1101.30;1049.60;;;;;;5051124;28;20017;-63
2023/07/28 05:46:36;;;;;;;6.30;5.80;;;1126.90;1024.00;;;;;;5051101;28;20082;-64
2023/07/28 05:49:02;;;;;;;5.90;5.38;;;1126.50;1049.60;;;;;;5051122;28;20032;-62
2023/07/28 05:51:28;;;;;;;5.68;5.13;;;1152.00;1024.00;;;;;;5051027;28;20037;-63
2023/07/28 05:53:54;;;;;;;6.85;6.20;;;1152.10;1024.00;;;;;;5050871;28;20033;-63
2023/07/28 05:56:20;;;;;;;9.52;5.97;;;1152.70;998.40;;;;;;5051505;28;20036;-63
2023/07/28 05:58:49;;;;;;;7.15;6.25;;;1152.50;998.40;;;;;;5051050;28;20017;-62
2023/07/28 06:01:15;;;;;;;6.38;5.72;;;1152.00;1024.00;;;;;;5050961;28;20021;-62
2023/07/28 06:03:41;;;;;;;6.88;6.28;;;1152.60;998.40;;;;;;5051369;28;20051;-63
2023/07/28 06:06:07;;;;;;;7.28;6.68;;;1177.70;998.40;;;;;;5051217;28;20060;-63
2023/07/28 06:08:33;;;;;;;6.80;6.22;;;1152.90;998.40;;;;;;5050821;28;20036;-65
2023/07/28 06:10:59;;;;;;;7.40;6.80;;;1178.10;947.20;;;;;;5050876;28;20545;-63
2023/07/28 06:13:25;;;;;;;7.75;7.20;;;1203.20;972.80;;;;;;5050829;28;20033;-67
2023/07/28 06:15:54;;;;;;;7.60;7.00;;;1203.80;947.20;;;;;;5050499;28;20018;-66
2023/07/28 06:18:22;;;;;;;7.82;7.22;;;1203.40;947.20;;;;;;5049690;28;20041;-64
2023/07/28 06:20:47;;;;;;;8.27;7.68;;;1178.00;972.80;;;;;;5050687;28;20540;-63
2023/07/28 06:23:13;;;;;;;8.75;7.90;;;1127.30;1024.00;;;;;;5049999;28;20052;-63
2023/07/28 06:25:43;;;;;;;8.68;7.88;;;1178.10;972.80;;;;;;5048872;28;20025;-65
2023/07/28 06:28:10;;;;;;;8.15;7.40;;;1152.90;998.40;;;;;;5048742;28;20392;-64
2023/07/28 06:30:37;;;;;;;8.43;7.72;;;1203.40;972.80;;;;;;5048914;28;20091;-63
2023/07/28 06:33:03;;;;;;;8.88;8.25;;;1203.40;947.20;;;;;;5064119;28;20486;-64
2023/07/28 06:35:28;;;;;;;8.57;7.97;;;1203.90;947.20;;;;;;5047130;28;20104;-67
2023/07/28 06:37:54;;;;;;;9.63;8.82;;;1254.40;947.20;;;;;;5037182;28;20108;-64
2023/07/28 06:40:20;;;;;;;9.38;8.70;;;1254.50;947.20;;;;;;5050317;28;20434;-64
2023/07/28 06:42:46;;;;;;;9.63;8.82;;;1229.00;947.20;;;;;;5050001;28;20033;-63
2023/07/28 06:45:12;;;;;;;9.38;8.77;;;1203.40;947.20;;;;;;5049834;28;20444;-64
2023/07/28 06:47:38;;;;;;;9.50;8.70;;;1254.80;921.60;;;;;;5050593;28;20383;-65
2023/07/28 06:50:05;;;;;;;9.73;9.13;;;1229.70;896.00;;;;;;5049847;28;20024;-69
2023/07/28 06:52:31;;;;;;;9.40;8.70;;;1229.00;921.60;;;;;;5050509;28;20040;-65
2023/07/28 06:54:56;;;;;;;11.48;10.70;;;1254.80;921.60;;;;;;5049935;28;20017;-63
2023/07/28 06:57:22;;;;;;;10.98;10.10;;;1203.60;947.20;;;;;;5050002;28;20077;-64
2023/07/28 06:59:48;;;;;;;10.70;9.80;;;1178.00;947.20;;;;;;5050171;28;20086;-64
2023/07/28 07:02:15;;;;;;;11.77;10.70;;;1177.80;947.20;;;;;;5049624;28;20040;-64
2023/07/28 07:04:41;;;;;;;11.63;10.73;;;1178.30;947.20;;;;;;5049601;28;20061;-66
2023/07/28 07:07:07;;;;;;;13.13;11.57;;;1177.60;972.80;;;;;;5049935;28;20095;-64
2023/07/28 07:09:32;;;;;;;14.55;11.40;;;1178.50;947.20;;;;;;5048332;28;20025;-65
2023/07/28 07:11:58;;;;;;;20.02;12.48;;;1203.20;947.20;;;;;;5047738;28;20446;-64
2023/07/28 07:14:24;;;;;;;13.52;12.18;;;1152.60;998.40;;;;;;5048097;28;20851;-65
2023/07/28 07:16:49;;;;;;;16.23;11.00;;;1127.00;1024.00;;;;;;5048206;28;20029;-68
2023/07/28 07:19:15;;;;;;;13.68;11.00;;;1229.40;921.60;;;;;;5047945;28;20086;-65
2023/07/28 07:21:41;;;;;;;16.85;12.25;;;1254.50;947.20;;;;;;5048023;28;20059;-65
2023/07/28 07:24:07;;;;;;;14.35;12.70;;;1203.60;972.80;;;;;;5047609;28;20041;-64
2023/07/28 07:26:33;;;;;;;15.30;11.82;;;1203.20;972.80;;;;;;5048109;28;20520;-64
2023/07/28 07:28:59;;;;;;;20.13;12.40;;;1204.10;947.20;;;;;;5047657;28;20063;-62
2023/07/28 07:31:24;;;;;;;14.60;11.40;;;1229.00;947.20;;;;;;5047815;28;20056;-64
2023/07/28 07:33:50;;;;;;;13.90;12.57;;;1203.30;972.80;;;;;;5048378;28;20059;-64
2023/07/28 07:36:17;;;;;;;12.52;10.57;;;1203.80;947.20;;;;;;5047665;28;20150;-64
2023/07/28 07:38:46;;;;;;;12.30;11.20;;;1229.00;896.00;;;;;;5047304;28;20061;-64
2023/07/28 07:41:15;;;;;;;12.43;11.52;;;1229.20;896.00;;;;;;5047661;28;20053;-65
2023/07/28 07:43:41;;;;;;;13.25;12.00;;;1255.00;870.40;;;;;;5048942;28;20495;-65
2023/07/28 07:46:08;;;;;;;12.82;11.18;;;1254.50;870.40;;;;;;5049761;28;20024;-68
2023/07/28 07:48:34;;;;;;;12.38;11.38;;;1305.70;819.20;;;;;;5049202;28;20083;-65
2023/07/28 07:51:00;;;;;;;14.70;12.57;;;1306.20;819.20;;;;;;5049119;28;20494;-65
2023/07/28 07:53:25;;;;;;;12.73;11.82;;;1305.70;819.20;;;;;;5048608;28;20041;-65
2023/07/28 07:55:51;;;;;;;11.60;10.13;;;1203.70;896.00;;;;;;5049190;28;20021;-65
2023/07/28 07:58:17;;;;;;;10.68;9.55;;;1203.90;844.80;;;;;;5049601;28;20460;-64
2023/07/28 08:00:44;;;;;;;11.65;10.60;;;1254.40;844.80;;;;;;5049030;28;20360;-66
2023/07/28 08:03:10;;;;;;;10.80;9.80;;;1280.40;819.20;;;;;;5048781;28;20522;-65
2023/07/28 08:05:35;;;;;;;13.30;12.10;;;1280.20;844.80;;;;;;5048794;28;20174;-66
2023/07/28 08:08:01;;;;;;;13.05;11.90;;;1305.70;819.20;;;;;;5048901;28;20531;-66
2023/07/28 08:10:27;;;;;;;13.68;12.38;;;1280.20;844.80;;;;;;5048982;28;20371;-65
2023/07/28 08:12:54;;;;;;;11.80;10.63;;;1203.80;870.40;;;;;;5048818;28;20021;-65
2023/07/28 08:15:20;;;;;;;12.55;10.98;;;1152.90;896.00;;;;;;5049234;28;20597;-65
2023/07/28 08:17:46;;;;;;;11.63;10.45;;;1178.00;870.40;;;;;;5048607;28;20104;-64
2023/07/28 08:20:12;;;;;;;11.35;9.23;;;1127.30;947.20;;;;;;5035780;28;20017;-65
2023/07/28 08:22:38;;;;;;;10.63;9.60;;;1152.20;921.60;;;;;;5048521;28;20052;-64
2023/07/28 08:25:04;;;;;;;9.98;9.18;;;1178.10;870.40;;;;;;5048804;28;20070;-64
2023/07/28 08:27:30;;;;;;;10.50;9.15;;;1152.40;896.00;;;;;;5049036;28;20029;-66
2023/07/28 08:29:56;;;;;;;10.43;8.45;;;1127.10;896.00;;;;;;5035442;28;20479;-65
2023/07/28 08:32:22;;;;;;;7.45;6.72;;;1100.80;972.80;;;;;;5048859;28;20082;-64
2023/07/28 08:34:48;;;;;;;5.70;5.10;;;999.30;998.40;;;;;;5048857;28;20024;-64
2023/07/28 08:37:14;;;;;;;7.28;4.85;;;948.10;1100.80;;;;;;5048581;28;20029;-68
2023/07/28 08:39:39;;;;;;;6.85;5.10;;;922.50;1075.20;;;;;;5048885;28;20029;-64
2023/07/28 08:42:05;;;;;;;5.45;4.78;;;896.50;1126.40;;;;;;5050501;28;20033;-64
2023/07/28 08:44:34;;;;;;;8.60;4.60;;;896.50;1177.60;;;;;;5052694;28;20049;-68
2023/07/28 08:47:04;;;;;;;5.85;4.20;;;871.30;1152.00;;;;;;5052505;28;20398;-64
2023/07/28 08:49:36;;;;;;;4.55;3.15;;;870.90;1177.60;;;;;;5052572;28;20107;-63
2023/07/28 08:52:03;;;;;;;4.13;3.60;;;870.90;1152.00;;;;;;5052267;28;20982;-69
2023/07/28 08:54:29;;;;;;;5.03;4.10;;;870.80;1177.60;;;;;;5052634;28;20021;-66
2023/07/28 08:56:57;;;;;;;5.00;3.70;;;870.50;1177.60;;;;;;5052033;28;20103;-63
2023/07/28 08:59:25;;;;;;;4.22;3.67;;;845.20;1203.20;;;;;;5052245;28;20416;-64
2023/07/28 09:01:57;;;;;;;3.95;3.30;;;845.00;1177.60;;;;;;5052345;28;20047;-63
2023/07/28 09:04:24;;;;;;;5.53;4.13;;;;;;;;;;5051899;28;20031;-63
2023/07/28 09:06:50;;;;;;;4.13;3.65;;;845.20;1254.40;;;;;;5051842;28;20017;-64
2023/07/28 09:09:19;;;;;;;8.85;4.53;;;844.90;1254.40;;;;;;5051874;28;20036;-67
2023/07/28 09:11:46;;;;;;;6.07;3.63;;;844.80;1305.60;;;;;;5052332;28;20032;-63
2023/07/28 09:14:13;;;;;;;4.70;3.75;;;844.80;1280.00;;;;;;5052012;28;20044;-63
2023/07/28 09:16:39;;;;;;;4.53;3.88;;;820.00;1280.00;;;;;;5052037;28;20540;-63
2023/07/28 09:19:06;;;;;;;4.00;3.60;;;820.10;1254.40;;;;;;5051892;28;20115;-64
2023/07/28 09:21:33;;;;;;;4.93;3.50;;;844.90;1280.00;;;;;;5051620;28;20536;-66
2023/07/28 09:24:05;;;;;;;5.53;3.58;;;819.90;1228.80;;;;;;5051584;28;20041;-63
2023/07/28 09:26:45;;;;;;;6.13;3.83;;;819.60;1228.80;;;;;;5051913;28;20111;-62
2023/07/28 09:29:19;;;;;;;3.75;3.28;;;819.60;1228.80;;;;;;5051831;28;20274;-67
2023/07/28 09:31:49;;;;;;;4.18;3.53;;;794.30;1254.40;;;;;;5051685;28;20108;-64
2023/07/28 09:34:26;;;;;;;3.78;3.30;;;794.20;1305.60;;;;;;5051535;28;20063;-68
2023/07/28 09:36:57;;;;;;;5.38;3.80;;;794.50;1305.60;;;;;;5051489;28;20033;-63
2023/07/28 09:39:23;;;;;;;4.00;3.45;;;794.50;1280.00;;;;;;5051192;28;20021;-62
2023/07/28 09:41:49;;;;;;;3.58;3.05;;;793.90;1280.00;;;;;;5051817;28;20044;-63
2023/07/28 09:44:15;;;;;;;4.40;3.58;;;793.70;1280.00;;;;;;5051481;28;20017;-62
2023/07/28 09:46:55;;;;;;;5.35;3.50;;;794.00;1331.20;;;;;;5051761;28;20033;-63
2023/07/28 09:49:28;;;;;;;5.07;3.90;;;768.80;1280.00;;;;;;5051496;28;20025;-63
2023/07/28 09:51:56;;;;;;;;;;;768.50;1305.60;;;;;;5051315;28;20017;-63
2023/07/28 09:54:29;;;;;;;5.25;3.30;;;768.90;1305.60;;;;;;5049929;28;19913;-63
2023/07/28 09:56:58;;;;;;;9.00;3.80;;;768.70;1280.00;;;;;;5050993;28;20036;-62
2023/07/28 09:59:31;;;;;;;4.93;3.15;;;768.90;1305.60;;;;;;5051070;28;20035;-63
2023/07/28 10:02:00;;;;;;;5.03;3.38;;;793.70;1331.20;;;;;;5051302;28;20032;-63
2023/07/28 10:04:26;;;;;;;4.70;3.65;;;794.00;1305.60;;;;;;5049585;28;20507;-62
2023/07/28 10:06:56;;;;;;;4.47;3.95;;;794.00;1305.60;;;;;;5051340;28;20021;-63
2023/07/28 10:09:27;;;;;;;5.15;3.63;;;768.70;1280.00;;;;;;5051002;28;20103;-63
2023/07/28 10:11:54;;;;;;;5.47;3.75;;;768.90;1305.60;;;;;;5050703;28;20063;-62
2023/07/28 10:14:30;;;;;;;4.25;3.47;;;793.90;1382.40;;;;;;5050984;28;20056;-64
2023/07/28 10:16:58;;;;;;;4.45;3.60;;;794.10;1382.40;;;;;;5044341;28;20105;-63
2023/07/28 10:19:27;;;;;;;5.68;4.65;;;794.20;1356.80;;;;;;5044258;28;20083;-67
2023/07/28 10:22:05;;;;;;;11.20;4.18;;;794.20;1408.00;;;;;;5050484;28;20037;-63
2023/07/28 10:24:56;;;;;;;5.95;3.92;;;794.20;1356.80;;;;;;5050196;28;20407;-63
2023/07/28 10:27:32;;;;;;;4.93;3.78;;;794.20;1305.60;;;;;;5050424;28;20057;-63
2023/07/28 10:29:59;;;;;;;5.47;3.80;;;794.20;1331.20;;;;;;5050505;28;20037;-63
2023/07/28 10:32:31;;;;;;;4.72;2.78;;;794.20;1305.60;;;;;;5050371;28;20060;-63
2023/07/28 10:35:07;;;;;;;8.23;3.20;;;793.90;1280.00;;;;;;5050337;28;20103;-62
2023/07/28 10:37:33;;;;;;;4.15;3.38;;;794.00;1356.80;;;;;;5050065;28;20270;-63
2023/07/28 10:40:28;;;;;;;4.72;3.30;;;794.10;1356.80;;;;;;5050902;28;20025;-67
2023/07/28 10:42:54;;;;;;;3.70;3.30;;;793.90;1280.00;;;;;;5050234;28;20033;-63
2023/07/28 10:45:22;;;;;;;5.55;3.55;;;793.90;1305.60;;;;;;5050242;28;20020;-66
2023/07/28 10:47:48;;;;;;;5.38;3.63;;;793.90;1305.60;;;;;;5050448;28;20096;-62
2023/07/28 10:50:15;;;;;;;3.30;3.00;;;793.90;1331.20;;;;;;5049998;28;20079;-63
2023/07/28 10:52:42;;;;;;;4.47;3.38;;;793.90;1356.80;;;;;;5050027;28;20140;-62
2023/07/28 10:55:27;;;;;;;6.13;2.95;;;793.70;1356.80;;;;;;5050334;28;20063;-62
2023/07/28 10:57:54;;;;;;;4.65;3.28;;;793.70;1382.40;;;;;;5049878;28;20378;-63
2023/07/28 11:00:22;;;;;;;3.60;2.90;;;793.70;1331.20;;;;;;5050006;28;20029;-63
2023/07/28 11:02:50;;;;;;;5.35;4.53;;;768.90;1305.60;;;;;;5050448;28;20072;-68
2023/07/28 11:05:26;;;;;;;5.78;3.45;;;768.90;1382.40;;;;;;5048684;28;20036;-68
2023/07/28 11:07:56;;;;;;;7.03;3.95;;;793.60;1331.20;;;;;;5042957;28;20027;-63
2023/07/28 11:10:22;;;;;;;4.32;3.35;;;793.60;1331.20;;;;;;5048930;28;20367;-66
2023/07/28 11:12:51;;;;;;;4.45;3.10;;;793.70;1305.60;;;;;;5048918;28;20033;-63
2023/07/28 11:15:18;;;;;;;4.50;3.20;;;793.60;1331.20;;;;;;5048826;28;20471;-63
2023/07/28 11:17:48;;;;;;;4.60;2.92;;;793.70;1382.40;;;;;;5049802;28;20121;-67
2023/07/28 11:20:16;;;;;;;4.45;3.33;;;793.70;1331.20;;;;;;5049738;28;20025;-62
2023/07/28 11:22:47;;;;;;;4.07;3.08;;;793.70;1331.20;;;;;;5049432;28;20527;-63
2023/07/28 11:25:13;;;;;;;3.75;2.70;;;793.70;1331.20;;;;;;5047907;28;20102;-65
2023/07/28 11:27:40;;;;;;;3.65;3.20;;;793.80;1356.80;;;;;;5044625;28;20025;-63
2023/07/28 11:30:12;;;;;;;4.70;3.33;;;793.70;1280.00;;;;;;5049230;28;20041;-67
2023/07/28 11:32:38;;;;;;;4.00;3.27;;;793.80;1408.00;;;;;;5048856;28;20033;-68
2023/07/28 11:35:09;;;;;;;5.13;2.70;;;793.70;1280.00;;;;;;5048700;28;20588;-62
2023/07/28 11:37:35;;;;;;;4.10;2.85;;;793.80;1331.20;;;;;;5049171;28;20039;-64
2023/07/28 11:40:06;;;;;;;3.30;2.60;;;793.80;1331.20;;;;;;5049085;28;20078;-63
2023/07/28 11:42:46;;;;;;;4.68;2.97;;;794.00;1382.40;;;;;;5048739;28;20501;-62
2023/07/28 11:45:15;;;;;;;4.35;2.95;;;793.90;1254.40;;;;;;5049248;28;20025;-62
2023/07/28 11:47:51;;;;;;;3.53;2.70;;;793.60;1305.60;;;;;;5048957;28;20495;-62
2023/07/28 11:50:26;;;;;;;4.80;3.10;;;768.60;1228.80;;;;;;5049285;28;20017;-65
2023/07/28 11:52:52;;;;;;;5.70;3.35;;;768.60;1254.40;;;;;;5049084;28;20041;-67
2023/07/28 11:55:20;;;;;;;3.70;2.90;;;768.60;1254.40;;;;;;5049337;28;20032;-62
2023/07/28 11:57:46;;;;;;;5.63;3.08;;;768.90;1305.60;;;;;;5049155;28;20103;-66
2023/07/28 12:00:16;;;;;;;4.07;3.17;;;793.70;1356.80;;;;;;5049142;28;20024;-62
2023/07/28 12:02:42;;;;;;;3.60;2.90;;;793.70;1280.00;;;;;;5048812;28;20082;-62
2023/07/28 12:05:15;;;;;;;3.90;2.95;;;793.80;1280.00;;;;;;5049050;28;20468;-62
2023/07/28 12:07:47;;;;;;;4.05;2.97;;;793.90;1280.00;;;;;;5048936;28;20025;-61
2023/07/28 12:10:13;;;;;;;3.35;2.70;;;793.90;1305.60;;;;;;5048927;28;20025;-63
2023/07/28 12:12:43;;;;;;;3.63;2.83;;;768.60;1203.20;;;;;;5049093;28;20548;-62
2023/07/28 12:15:30;;;;;;;3.90;2.90;;;768.90;1254.40;;;;;;5048981;28;20444;-62
2023/07/28 12:18:09;;;;;;;3.65;2.75;;;768.70;1228.80;;;;;;5052183;28;20417;-61